Decoded Metar for KDDC (DODGE CITY in KS, USA) (IATA:DDC) | Meteo·Mobile Aviation Weather
aviador You're here:

KDDC Decoded Metar

DODGE CITY in KS, USA
Report Time2019-01-23 06:52:00
UTC Time2019-01-23 07:46:20
Flight Rules vfr VFR
Wind330° at 10 kt
W.Decomp.*RWY 32: 10.0 kt HW 0.3 kt RCW
RWY 02: 5.3 kt HW 8.5 kt LCW
W.Rank330° ranks 16
Current wind is above 330° avg. (9.7)
Visibility9999 m
Phenomena:N/A
Clouds:N/A
Expected CloudBase > 1,200 ft AGL from Temp-Dew spread
CeilingNone
Temp-8°C (ISA -18)
Dew Point-11°C (79% RH)
AAT-14.7°C
QNH1019 hPa
Density Alt223 ft
Elevation2,589 ft
Report Wrong Elevation
Raw Report
KDDC 230652Z AUTO 33010KT 10SM CLR M08/M11 A3008 RMK AO2 SLP221
T10831111 $=

Extra information for KDDC:More info

Metar Taf Metar & Taf Last 4 Metars F.Rules Stats Wind Profile Meteogram Temp Stats Airport Information Weather charts Add Link Nearby VenuesMetar ALERT Operation Metar Decoded Social comments

AIRNAV info for KDDC